DAL3547 KMCO-KJFK
Flight info
| Callsign | DAL3547 |
|---|---|
| Flight time | N/A |
| Altitude | 35000 |
| Route | FATHE3 VIYAP Q87 JROSS JOHAR Q109 DFENC SAWED Q108 SIE CAMRN4 |
| Aircraft | A321/M-SDE3FGHIRWY/LB1 |
Departure
| Time | 2026-04-22 06:12 |
|---|---|
| Airport | Orlando International Airport (KMCO) |
Arrival
| Time | N/A |
|---|---|
| Airport | John F. Kennedy International Airport (KJFK) |
| Time | Latitude | Longitude | Altitude | Speed | Heading |
|---|---|---|---|---|---|
| 2026-04-22 05:51 | 28.43414 | -81.30110 | 101 ft | 0 kts | 63° |
| 2026-04-22 05:56 | 28.43412 | -81.30115 | 100 ft | 2 kts | 63° |
| 2026-04-22 05:56 | 28.43403 | -81.30134 | 101 ft | 3 kts | 69° |
| 2026-04-22 05:56 | 28.43396 | -81.30156 | 99 ft | 3 kts | 81° |
| 2026-04-22 05:56 | 28.43394 | -81.30177 | 100 ft | 3 kts | 111° |
| 2026-04-22 05:57 | 28.43396 | -81.30191 | 98 ft | 4 kts | 168° |
| 2026-04-22 05:57 | 28.43401 | -81.30194 | 98 ft | 0 kts | 195° |
| 2026-04-22 05:59 | 28.43378 | -81.30198 | 99 ft | 3 kts | 185° |
| 2026-04-22 05:59 | 28.43367 | -81.30197 | 101 ft | 0 kts | 177° |
| 2026-04-22 06:00 | 28.43343 | -81.30188 | 101 ft | 6 kts | 154° |
| 2026-04-22 06:00 | 28.43321 | -81.30158 | 101 ft | 4 kts | 126° |
| 2026-04-22 06:00 | 28.43305 | -81.30132 | 100 ft | 4 kts | 123° |
| 2026-04-22 06:00 | 28.43292 | -81.30104 | 101 ft | 4 kts | 115° |
| 2026-04-22 06:01 | 28.43283 | -81.30070 | 101 ft | 5 kts | 102° |
| 2026-04-22 06:01 | 28.43281 | -81.30033 | 101 ft | 5 kts | 88° |
| 2026-04-22 06:01 | 28.43288 | -81.29996 | 101 ft | 5 kts | 75° |
| 2026-04-22 06:01 | 28.43298 | -81.29956 | 101 ft | 6 kts | 75° |
| 2026-04-22 06:02 | 28.43310 | -81.29926 | 101 ft | 4 kts | 67° |
| 2026-04-22 06:02 | 28.43321 | -81.29895 | 107 ft | 4 kts | 67° |
| 2026-04-22 06:02 | 28.43330 | -81.29868 | 101 ft | 3 kts | 70° |
| 2026-04-22 06:02 | 28.43332 | -81.29852 | 102 ft | 1 kts | 83° |
| 2026-04-22 06:03 | 28.43333 | -81.29846 | 102 ft | 5 kts | 85° |
| 2026-04-22 06:03 | 28.43313 | -81.29810 | 103 ft | 5 kts | 141° |
| 2026-04-22 06:03 | 28.43277 | -81.29803 | 103 ft | 6 kts | 177° |
| 2026-04-22 06:04 | 28.43221 | -81.29801 | 104 ft | 10 kts | 181° |
| 2026-04-22 06:04 | 28.43140 | -81.29803 | 104 ft | 14 kts | 181° |
| 2026-04-22 06:04 | 28.43036 | -81.29802 | 104 ft | 17 kts | 179° |
| 2026-04-22 06:04 | 28.42910 | -81.29800 | 103 ft | 20 kts | 181° |
| 2026-04-22 06:05 | 28.42770 | -81.29799 | 103 ft | 18 kts | 178° |
| 2026-04-22 06:05 | 28.42657 | -81.29797 | 103 ft | 15 kts | 179° |
| 2026-04-22 06:05 | 28.42567 | -81.29796 | 103 ft | 11 kts | 179° |
| 2026-04-22 06:05 | 28.42506 | -81.29795 | 103 ft | 7 kts | 179° |
| 2026-04-22 06:06 | 28.42469 | -81.29795 | 103 ft | 4 kts | 179° |
| 2026-04-22 06:06 | 28.42412 | -81.29794 | 103 ft | 12 kts | 179° |
| 2026-04-22 06:06 | 28.42302 | -81.29792 | 102 ft | 20 kts | 179° |
| 2026-04-22 06:06 | 28.42137 | -81.29791 | 102 ft | 26 kts | 180° |
| 2026-04-22 06:07 | 28.41974 | -81.29790 | 102 ft | 21 kts | 179° |
| 2026-04-22 06:07 | 28.41848 | -81.29789 | 102 ft | 16 kts | 179° |
| 2026-04-22 06:07 | 28.41756 | -81.29787 | 102 ft | 11 kts | 179° |
| 2026-04-22 06:07 | 28.41693 | -81.29786 | 102 ft | 8 kts | 179° |
| 2026-04-22 06:08 | 28.41647 | -81.29785 | 102 ft | 6 kts | 179° |
| 2026-04-22 06:08 | 28.41610 | -81.29784 | 102 ft | 5 kts | 179° |
| 2026-04-22 06:08 | 28.41583 | -81.29784 | 102 ft | 3 kts | 179° |
| 2026-04-22 06:08 | 28.41564 | -81.29783 | 102 ft | 2 kts | 179° |
| 2026-04-22 06:09 | 28.41521 | -81.29783 | 102 ft | 16 kts | 180° |
| 2026-04-22 06:09 | 28.41342 | -81.29784 | 101 ft | 31 kts | 177° |
| 2026-04-22 06:09 | 28.41149 | -81.29782 | 101 ft | 25 kts | 180° |
| 2026-04-22 06:09 | 28.41005 | -81.29779 | 100 ft | 19 kts | 180° |
| 2026-04-22 06:10 | 28.40880 | -81.29778 | 100 ft | 15 kts | 178° |
| 2026-04-22 06:10 | 28.40822 | -81.29724 | 99 ft | 9 kts | 100° |
| 2026-04-22 06:10 | 28.40821 | -81.29664 | 98 ft | 6 kts | 88° |
| 2026-04-22 06:10 | 28.40822 | -81.29622 | 98 ft | 5 kts | 86° |
| 2026-04-22 06:11 | 28.40835 | -81.29583 | 99 ft | 6 kts | 61° |
| 2026-04-22 06:11 | 28.40870 | -81.29562 | 97 ft | 4 kts | 7° |
| 2026-04-22 06:11 | 28.40914 | -81.29561 | 97 ft | 22 kts | 360° |
| 2026-04-22 06:11 | 28.41346 | -81.29565 | 103 ft | 102 kts | 359° |
| 2026-04-22 06:12 | 28.42301 | -81.29574 | 100 ft | 176 kts | 360° |
| 2026-04-22 06:12 | 28.43748 | -81.29574 | 455 ft | 225 kts | 0° |
| 2026-04-22 06:12 | 28.44830 | -81.29569 | 908 ft | 248 kts | 2° |
| 2026-04-22 06:12 | 28.46743 | -81.29555 | 1710 ft | 280 kts | 4° |
| 2026-04-22 06:13 | 28.48660 | -81.29330 | 3148 ft | 274 kts | 10° |
| 2026-04-22 06:13 | 28.50668 | -81.29422 | 4389 ft | 299 kts | 356° |
| 2026-04-22 06:13 | 28.52725 | -81.29753 | 4775 ft | 339 kts | 355° |
| 2026-04-22 06:13 | 28.55271 | -81.30136 | 5084 ft | 386 kts | 356° |
| 2026-04-22 06:14 | 28.58066 | -81.30475 | 5204 ft | 432 kts | 357° |
| 2026-04-22 06:14 | 28.61268 | -81.30784 | 5251 ft | 475 kts | 358° |
| 2026-04-22 06:14 | 28.64411 | -81.31043 | 5262 ft | 429 kts | 358° |
| 2026-04-22 06:14 | 28.67206 | -81.31264 | 5294 ft | 387 kts | 358° |
| 2026-04-22 06:15 | 28.69767 | -81.31464 | 5298 ft | 360 kts | 359° |
| 2026-04-22 06:15 | 28.72252 | -81.31653 | 5867 ft | 342 kts | 359° |
| 2026-04-22 06:15 | 28.74533 | -81.31818 | 7309 ft | 323 kts | 358° |
| 2026-04-22 06:15 | 28.76640 | -81.31962 | 8923 ft | 308 kts | 358° |
| 2026-04-22 06:16 | 28.78744 | -81.32102 | 10478 ft | 295 kts | 358° |
| 2026-04-22 06:16 | 28.80805 | -81.32236 | 11322 ft | 307 kts | 358° |
| 2026-04-22 06:16 | 28.82958 | -81.32368 | 11774 ft | 328 kts | 358° |
| 2026-04-22 06:16 | 28.85393 | -81.32506 | 12311 ft | 348 kts | 358° |
| 2026-04-22 06:17 | 28.87830 | -81.32634 | 12883 ft | 364 kts | 358° |
| 2026-04-22 06:17 | 28.90423 | -81.32763 | 13487 ft | 380 kts | 358° |
| 2026-04-22 06:17 | 28.93059 | -81.32889 | 14105 ft | 393 kts | 358° |
| 2026-04-22 06:17 | 28.95878 | -81.33018 | 14906 ft | 399 kts | 358° |
| 2026-04-22 06:18 | 28.98675 | -81.33141 | 15748 ft | 404 kts | 358° |
| 2026-04-22 06:18 | 29.01484 | -81.33262 | 16621 ft | 407 kts | 357° |
| 2026-04-22 06:18 | 29.04364 | -81.33388 | 17483 ft | 411 kts | 357° |
| 2026-04-22 06:18 | 29.07234 | -81.33514 | 18318 ft | 415 kts | 356° |
| 2026-04-22 06:19 | 29.10136 | -81.33642 | 19072 ft | 419 kts | 356° |
| 2026-04-22 06:19 | 29.13077 | -81.33769 | 19791 ft | 423 kts | 356° |
| 2026-04-22 06:19 | 29.16024 | -81.33897 | 20499 ft | 427 kts | 355° |
| 2026-04-22 06:19 | 29.19012 | -81.34026 | 21203 ft | 430 kts | 355° |
| 2026-04-22 06:20 | 29.22019 | -81.34158 | 21909 ft | 434 kts | 355° |
| 2026-04-22 06:20 | 29.25038 | -81.34291 | 22590 ft | 438 kts | 355° |
| 2026-04-22 06:20 | 29.28094 | -81.34426 | 23280 ft | 441 kts | 354° |
| 2026-04-22 06:20 | 29.31172 | -81.34563 | 23946 ft | 445 kts | 354° |
| 2026-04-22 06:21 | 29.34287 | -81.34704 | 24496 ft | 449 kts | 354° |
| 2026-04-22 06:21 | 29.37415 | -81.34847 | 25053 ft | 452 kts | 354° |
| 2026-04-22 06:21 | 29.40572 | -81.34992 | 25606 ft | 456 kts | 354° |
| 2026-04-22 06:21 | 29.43718 | -81.35137 | 26157 ft | 459 kts | 354° |
| 2026-04-22 06:22 | 29.46974 | -81.35287 | 26697 ft | 463 kts | 353° |
| 2026-04-22 06:22 | 29.50185 | -81.35433 | 27388 ft | 462 kts | 353° |
| 2026-04-22 06:22 | 29.53395 | -81.35577 | 28156 ft | 461 kts | 353° |
| 2026-04-22 06:22 | 29.56544 | -81.35717 | 28907 ft | 459 kts | 353° |
| 2026-04-22 06:23 | 29.59771 | -81.35861 | 29660 ft | 457 kts | 353° |
| 2026-04-22 06:23 | 29.62946 | -81.36003 | 30414 ft | 456 kts | 353° |
| 2026-04-22 06:23 | 29.66071 | -81.36144 | 31040 ft | 454 kts | 353° |
| 2026-04-22 06:23 | 29.69205 | -81.36287 | 31675 ft | 452 kts | 352° |
| 2026-04-22 06:24 | 29.75472 | -81.36575 | 32942 ft | 448 kts | 352° |
| 2026-04-22 06:24 | 29.78584 | -81.36719 | 33545 ft | 446 kts | 352° |
| 2026-04-22 06:24 | 29.81678 | -81.36862 | 34149 ft | 444 kts | 352° |
| 2026-04-22 06:25 | 29.84741 | -81.37002 | 34672 ft | 443 kts | 352° |
| 2026-04-22 06:25 | 29.87805 | -81.37136 | 35006 ft | 433 kts | 352° |
| 2026-04-22 06:25 | 29.90811 | -81.37268 | 35176 ft | 433 kts | 351° |
| 2026-04-22 06:26 | 29.96882 | -81.37555 | 35286 ft | 440 kts | 351° |
| 2026-04-22 06:26 | 30.02988 | -81.37844 | 35306 ft | 437 kts | 351° |
| 2026-04-22 06:27 | 30.09011 | -81.38125 | 35307 ft | 436 kts | 351° |
| 2026-04-22 06:27 | 30.15080 | -81.38411 | 35303 ft | 438 kts | 351° |
| 2026-04-22 06:28 | 30.21157 | -81.38695 | 35299 ft | 436 kts | 351° |
| 2026-04-22 06:28 | 30.27218 | -81.38975 | 35295 ft | 436 kts | 351° |
| 2026-04-22 06:29 | 30.33271 | -81.39257 | 35296 ft | 437 kts | 351° |
| 2026-04-22 06:29 | 30.39334 | -81.39538 | 35294 ft | 436 kts | 351° |
| 2026-04-22 06:30 | 30.45369 | -81.39817 | 35295 ft | 435 kts | 351° |
| 2026-04-22 06:30 | 30.51463 | -81.40100 | 35297 ft | 437 kts | 351° |
| 2026-04-22 06:31 | 30.57499 | -81.40380 | 35295 ft | 436 kts | 351° |
| 2026-04-22 06:31 | 30.63548 | -81.40659 | 35297 ft | 435 kts | 351° |
| 2026-04-22 06:32 | 30.69618 | -81.40941 | 35297 ft | 436 kts | 351° |
| 2026-04-22 06:32 | 30.75688 | -81.41223 | 35293 ft | 436 kts | 351° |
| 2026-04-22 06:33 | 30.81739 | -81.41504 | 35288 ft | 435 kts | 351° |
| 2026-04-22 06:33 | 30.87756 | -81.41784 | 35287 ft | 436 kts | 351° |
| 2026-04-22 06:34 | 30.93825 | -81.42067 | 35285 ft | 437 kts | 351° |
| 2026-04-22 06:34 | 30.99900 | -81.42351 | 35287 ft | 436 kts | 351° |
| 2026-04-22 06:35 | 31.05955 | -81.42634 | 35288 ft | 436 kts | 351° |
| 2026-04-22 06:35 | 31.12021 | -81.42920 | 35288 ft | 437 kts | 351° |
| 2026-04-22 06:36 | 31.18093 | -81.43207 | 35289 ft | 436 kts | 351° |
| 2026-04-22 06:36 | 31.24182 | -81.43009 | 35330 ft | 450 kts | 8° |
| 2026-04-22 06:37 | 31.30158 | -81.40522 | 35308 ft | 463 kts | 15° |
| 2026-04-22 06:37 | 31.36065 | -81.37545 | 35303 ft | 462 kts | 17° |
| 2026-04-22 06:38 | 31.41923 | -81.34443 | 35298 ft | 463 kts | 18° |
| 2026-04-22 06:38 | 31.47780 | -81.31291 | 35293 ft | 464 kts | 18° |
| 2026-04-22 06:39 | 31.53645 | -81.28111 | 35286 ft | 463 kts | 18° |
| 2026-04-22 06:39 | 31.59499 | -81.24928 | 35286 ft | 463 kts | 18° |
| 2026-04-22 06:40 | 31.65358 | -81.21743 | 35281 ft | 464 kts | 18° |
| 2026-04-22 06:40 | 31.71205 | -81.18550 | 35272 ft | 464 kts | 18° |
| 2026-04-22 06:41 | 31.77050 | -81.15348 | 35274 ft | 463 kts | 18° |
| 2026-04-22 06:41 | 31.82882 | -81.12153 | 35271 ft | 464 kts | 18° |
| 2026-04-22 06:42 | 31.88741 | -81.08942 | 35270 ft | 464 kts | 18° |
| 2026-04-22 06:42 | 31.94588 | -81.05734 | 35269 ft | 463 kts | 18° |
| 2026-04-22 06:43 | 32.00414 | -81.02519 | 35271 ft | 462 kts | 18° |
| 2026-04-22 06:43 | 32.06202 | -80.99292 | 35269 ft | 463 kts | 18° |
| 2026-04-22 06:44 | 32.12046 | -80.96021 | 35272 ft | 461 kts | 18° |
| 2026-04-22 06:44 | 32.17835 | -80.92773 | 35299 ft | 460 kts | 18° |
| 2026-04-22 06:45 | 32.23592 | -80.89543 | 35305 ft | 461 kts | 18° |
| 2026-04-22 06:45 | 32.29381 | -80.86290 | 35310 ft | 461 kts | 18° |
| 2026-04-22 06:46 | 32.35183 | -80.83025 | 35298 ft | 460 kts | 18° |
| 2026-04-22 06:46 | 32.40963 | -80.79769 | 35306 ft | 460 kts | 18° |
| 2026-04-22 06:47 | 32.46756 | -80.76501 | 35304 ft | 461 kts | 18° |
| 2026-04-22 06:47 | 32.52508 | -80.73252 | 35303 ft | 460 kts | 18° |
| 2026-04-22 06:48 | 32.58277 | -80.69990 | 35304 ft | 460 kts | 18° |
| 2026-04-22 06:48 | 32.64040 | -80.66729 | 35308 ft | 460 kts | 18° |
| 2026-04-22 06:49 | 32.69723 | -80.63142 | 35326 ft | 471 kts | 31° |
| 2026-04-22 06:49 | 32.74650 | -80.57895 | 35309 ft | 480 kts | 37° |
| 2026-04-22 06:50 | 32.79385 | -80.52327 | 35305 ft | 480 kts | 38° |
| 2026-04-22 06:50 | 32.84083 | -80.46660 | 35304 ft | 480 kts | 39° |
| 2026-04-22 06:51 | 32.88754 | -80.40974 | 35304 ft | 482 kts | 39° |
| 2026-04-22 06:51 | 32.93424 | -80.35260 | 35287 ft | 481 kts | 39° |
| 2026-04-22 06:52 | 32.98062 | -80.29564 | 35285 ft | 481 kts | 39° |
| 2026-04-22 06:52 | 33.02741 | -80.23805 | 35287 ft | 482 kts | 39° |
| 2026-04-22 06:53 | 33.07411 | -80.18046 | 35286 ft | 482 kts | 39° |
| 2026-04-22 06:53 | 33.12059 | -80.12296 | 35295 ft | 481 kts | 39° |
| 2026-04-22 06:54 | 33.16682 | -80.06568 | 35298 ft | 482 kts | 39° |
| 2026-04-22 06:54 | 33.21315 | -80.00818 | 35298 ft | 482 kts | 40° |
| 2026-04-22 06:55 | 33.25962 | -79.95037 | 35296 ft | 481 kts | 40° |
| 2026-04-22 06:55 | 33.30601 | -79.89257 | 35300 ft | 481 kts | 40° |
| 2026-04-22 06:56 | 33.35233 | -79.83477 | 35302 ft | 481 kts | 40° |
| 2026-04-22 06:56 | 33.39859 | -79.77693 | 35304 ft | 480 kts | 39° |
| 2026-04-22 06:57 | 33.44461 | -79.71929 | 35309 ft | 480 kts | 39° |
| 2026-04-22 06:57 | 33.49069 | -79.66148 | 35309 ft | 480 kts | 39° |
| 2026-04-22 06:58 | 33.53648 | -79.60392 | 35303 ft | 479 kts | 39° |
| 2026-04-22 06:58 | 33.58238 | -79.54613 | 35308 ft | 478 kts | 39° |
| 2026-04-22 06:59 | 33.62822 | -79.48834 | 35313 ft | 479 kts | 39° |
| 2026-04-22 06:59 | 33.67412 | -79.43040 | 35313 ft | 479 kts | 39° |
| 2026-04-22 07:00 | 33.72000 | -79.37238 | 35313 ft | 478 kts | 39° |
| 2026-04-22 07:00 | 33.76556 | -79.31467 | 35313 ft | 479 kts | 39° |
| 2026-04-22 07:01 | 33.81159 | -79.25625 | 35318 ft | 479 kts | 39° |
| 2026-04-22 07:01 | 33.85706 | -79.19846 | 35313 ft | 479 kts | 39° |
| 2026-04-22 07:02 | 33.90287 | -79.14013 | 35310 ft | 479 kts | 39° |
| 2026-04-22 07:02 | 33.94873 | -79.08166 | 35306 ft | 480 kts | 39° |
| 2026-04-22 07:03 | 33.99446 | -79.02324 | 35309 ft | 479 kts | 39° |
| 2026-04-22 07:03 | 34.04001 | -78.96494 | 35308 ft | 479 kts | 39° |
| 2026-04-22 07:04 | 34.08572 | -78.90635 | 35313 ft | 480 kts | 39° |
| 2026-04-22 07:04 | 34.13149 | -78.84755 | 35313 ft | 479 kts | 39° |
| 2026-04-22 07:05 | 34.17702 | -78.78894 | 35322 ft | 479 kts | 39° |
| 2026-04-22 07:05 | 34.22256 | -78.73024 | 35319 ft | 479 kts | 39° |
| 2026-04-22 07:06 | 34.26798 | -78.67157 | 35320 ft | 478 kts | 39° |
| 2026-04-22 07:06 | 34.31384 | -78.61358 | 35324 ft | 473 kts | 34° |
| 2026-04-22 07:07 | 34.36317 | -78.56252 | 35314 ft | 470 kts | 31° |
| 2026-04-22 07:07 | 34.41405 | -78.51322 | 35306 ft | 468 kts | 30° |
| 2026-04-22 07:08 | 34.46526 | -78.46441 | 35307 ft | 466 kts | 30° |
| 2026-04-22 07:08 | 34.50769 | -78.42413 | 35305 ft | 467 kts | 30° |
| 2026-04-22 07:09 | 34.55911 | -78.37534 | 35304 ft | 466 kts | 30° |
| 2026-04-22 07:09 | 34.60989 | -78.32709 | 35302 ft | 464 kts | 30° |
| 2026-04-22 07:10 | 34.66066 | -78.27879 | 35307 ft | 465 kts | 30° |
| 2026-04-22 07:10 | 34.71165 | -78.23022 | 35308 ft | 465 kts | 30° |
| 2026-04-22 07:11 | 34.76244 | -78.18172 | 35305 ft | 464 kts | 30° |
| 2026-04-22 07:11 | 34.81320 | -78.13313 | 35305 ft | 464 kts | 30° |
| 2026-04-22 07:12 | 34.86395 | -78.08465 | 35314 ft | 465 kts | 30° |
| 2026-04-22 07:12 | 34.91479 | -78.03619 | 35311 ft | 463 kts | 30° |
| 2026-04-22 07:13 | 34.96562 | -77.98768 | 35316 ft | 463 kts | 31° |
| 2026-04-22 07:13 | 35.01638 | -77.93916 | 35315 ft | 464 kts | 31° |
| 2026-04-22 07:14 | 35.06701 | -77.89066 | 35314 ft | 463 kts | 31° |
| 2026-04-22 07:14 | 35.11757 | -77.84212 | 35316 ft | 462 kts | 31° |
| 2026-04-22 07:15 | 35.16781 | -77.79382 | 35316 ft | 463 kts | 31° |
| 2026-04-22 07:15 | 35.21841 | -77.74507 | 35307 ft | 462 kts | 31° |
| 2026-04-22 07:16 | 35.26876 | -77.69647 | 35308 ft | 461 kts | 31° |
| 2026-04-22 07:16 | 35.31934 | -77.64758 | 35306 ft | 462 kts | 31° |
| 2026-04-22 07:17 | 35.36930 | -77.59920 | 35309 ft | 461 kts | 31° |
| 2026-04-22 07:17 | 35.41965 | -77.55033 | 35310 ft | 461 kts | 31° |
| 2026-04-22 07:18 | 35.46987 | -77.50153 | 35304 ft | 462 kts | 31° |
| 2026-04-22 07:18 | 35.52045 | -77.45230 | 35289 ft | 462 kts | 31° |
| 2026-04-22 07:19 | 35.57057 | -77.40342 | 35288 ft | 461 kts | 31° |
| 2026-04-22 07:19 | 35.62054 | -77.35462 | 35288 ft | 462 kts | 31° |
| 2026-04-22 07:20 | 35.67094 | -77.30531 | 35288 ft | 463 kts | 31° |
| 2026-04-22 07:20 | 35.72128 | -77.25597 | 35289 ft | 462 kts | 31° |
| 2026-04-22 07:21 | 35.77154 | -77.20663 | 35297 ft | 463 kts | 31° |
| 2026-04-22 07:21 | 35.82194 | -77.15706 | 35298 ft | 463 kts | 31° |
| 2026-04-22 07:22 | 35.87177 | -77.10792 | 35299 ft | 462 kts | 31° |
| 2026-04-22 07:22 | 35.92343 | -77.06133 | 35300 ft | 456 kts | 25° |
| 2026-04-22 07:23 | 35.97729 | -77.02009 | 35297 ft | 455 kts | 24° |
| 2026-04-22 07:23 | 36.03159 | -76.97989 | 35299 ft | 454 kts | 23° |
| 2026-04-22 07:24 | 36.08580 | -76.94009 | 35289 ft | 454 kts | 23° |
| 2026-04-22 07:24 | 36.14012 | -76.90032 | 35289 ft | 454 kts | 23° |
| 2026-04-22 07:25 | 36.19412 | -76.86075 | 35285 ft | 453 kts | 23° |
| 2026-04-22 07:25 | 36.24820 | -76.82106 | 35286 ft | 453 kts | 24° |
| 2026-04-22 07:26 | 36.30243 | -76.78124 | 35288 ft | 453 kts | 24° |
| 2026-04-22 07:26 | 36.35665 | -76.74134 | 35287 ft | 453 kts | 24° |
| 2026-04-22 07:27 | 36.41086 | -76.70139 | 35283 ft | 452 kts | 24° |
| 2026-04-22 07:27 | 36.46482 | -76.66157 | 35280 ft | 453 kts | 24° |
| 2026-04-22 07:28 | 36.54553 | -76.60187 | 35277 ft | 452 kts | 24° |
| 2026-04-22 07:28 | 36.59962 | -76.56178 | 35272 ft | 451 kts | 24° |
| 2026-04-22 07:29 | 36.65345 | -76.52181 | 35281 ft | 452 kts | 25° |
| 2026-04-22 07:29 | 36.70741 | -76.48167 | 35264 ft | 451 kts | 25° |
| 2026-04-22 07:30 | 36.76124 | -76.44156 | 35270 ft | 451 kts | 25° |
| 2026-04-22 07:30 | 36.81518 | -76.40130 | 35265 ft | 451 kts | 25° |
| 2026-04-22 07:31 | 36.86908 | -76.36101 | 35301 ft | 451 kts | 25° |
| 2026-04-22 07:31 | 36.92274 | -76.32081 | 35297 ft | 450 kts | 25° |
| 2026-04-22 07:32 | 36.97662 | -76.28037 | 35296 ft | 451 kts | 25° |
| 2026-04-22 07:32 | 37.03036 | -76.23999 | 35253 ft | 451 kts | 25° |
| 2026-04-22 07:33 | 37.08378 | -76.19976 | 35253 ft | 450 kts | 25° |
| 2026-04-22 07:33 | 37.13775 | -76.15903 | 35254 ft | 451 kts | 25° |
| 2026-04-22 07:34 | 37.19150 | -76.11841 | 35253 ft | 451 kts | 25° |
| 2026-04-22 07:34 | 37.24526 | -76.07770 | 35250 ft | 451 kts | 25° |
| 2026-04-22 07:35 | 37.29893 | -76.03699 | 35245 ft | 451 kts | 25° |
| 2026-04-22 07:35 | 37.35278 | -75.99610 | 35247 ft | 452 kts | 25° |
| 2026-04-22 07:36 | 37.40599 | -75.95559 | 35245 ft | 451 kts | 25° |
| 2026-04-22 07:36 | 37.45965 | -75.91465 | 35239 ft | 451 kts | 25° |
| 2026-04-22 07:37 | 37.51347 | -75.87359 | 35238 ft | 452 kts | 25° |
| 2026-04-22 07:37 | 37.56716 | -75.83312 | 35250 ft | 451 kts | 25° |
| 2026-04-22 07:38 | 37.62111 | -75.79268 | 35246 ft | 450 kts | 25° |
| 2026-04-22 07:38 | 37.67501 | -75.75229 | 35253 ft | 451 kts | 25° |
| 2026-04-22 07:39 | 37.72854 | -75.71209 | 35256 ft | 451 kts | 25° |
| 2026-04-22 07:39 | 37.78240 | -75.67153 | 35251 ft | 450 kts | 25° |
| 2026-04-22 07:40 | 37.83586 | -75.63018 | 35258 ft | 452 kts | 26° |
| 2026-04-22 07:40 | 37.88831 | -75.58628 | 35262 ft | 453 kts | 28° |
| 2026-04-22 07:41 | 37.94043 | -75.54130 | 35264 ft | 452 kts | 28° |
| 2026-04-22 07:41 | 37.99207 | -75.49619 | 35263 ft | 452 kts | 28° |
| 2026-04-22 07:42 | 38.04404 | -75.45108 | 35261 ft | 452 kts | 27° |
| 2026-04-22 07:42 | 38.09644 | -75.40748 | 35259 ft | 450 kts | 26° |
| 2026-04-22 07:43 | 38.14899 | -75.36448 | 35259 ft | 449 kts | 26° |
| 2026-04-22 07:43 | 38.20129 | -75.32185 | 35259 ft | 450 kts | 26° |
| 2026-04-22 07:44 | 38.25666 | -75.28771 | 35273 ft | 434 kts | 9° |
| 2026-04-22 07:44 | 38.31476 | -75.27010 | 35262 ft | 431 kts | 5° |
| 2026-04-22 07:45 | 38.37360 | -75.25588 | 35258 ft | 428 kts | 4° |
| 2026-04-22 07:45 | 38.43217 | -75.24316 | 35260 ft | 427 kts | 3° |
| 2026-04-22 07:46 | 38.49104 | -75.23090 | 35257 ft | 428 kts | 3° |
| 2026-04-22 07:46 | 38.54972 | -75.21870 | 35226 ft | 427 kts | 3° |
| 2026-04-22 07:47 | 38.60792 | -75.20654 | 35230 ft | 427 kts | 3° |
| 2026-04-22 07:47 | 38.66701 | -75.19392 | 35222 ft | 429 kts | 7° |
| 2026-04-22 07:48 | 38.69529 | -75.18077 | 35247 ft | 441 kts | 22° |
| 2026-04-22 07:48 | 38.72159 | -75.16063 | 35239 ft | 447 kts | 27° |
| 2026-04-22 07:48 | 38.77294 | -75.11522 | 35221 ft | 450 kts | 29° |
| 2026-04-22 07:49 | 38.82343 | -75.06760 | 35228 ft | 449 kts | 30° |
| 2026-04-22 07:49 | 38.87335 | -75.01936 | 35238 ft | 451 kts | 31° |
| 2026-04-22 07:50 | 38.92336 | -74.97050 | 35247 ft | 452 kts | 31° |
| 2026-04-22 07:50 | 38.97289 | -74.92176 | 35250 ft | 450 kts | 31° |
| 2026-04-22 07:51 | 39.02288 | -74.87242 | 35251 ft | 452 kts | 31° |
| 2026-04-22 07:51 | 39.07260 | -74.82398 | 35248 ft | 439 kts | 24° |
| 2026-04-22 07:52 | 39.09910 | -74.80822 | 35265 ft | 405 kts | 11° |
| 2026-04-22 07:52 | 39.12527 | -74.79809 | 35255 ft | 382 kts | 8° |
| 2026-04-22 07:52 | 39.15031 | -74.78944 | 35248 ft | 367 kts | 8° |
| 2026-04-22 07:52 | 39.17490 | -74.78131 | 35248 ft | 366 kts | 7° |
| 2026-04-22 07:53 | 39.22498 | -74.76472 | 35253 ft | 375 kts | 8° |
| 2026-04-22 07:53 | 39.27533 | -74.74702 | 35249 ft | 374 kts | 9° |
| 2026-04-22 07:54 | 39.32517 | -74.72854 | 35251 ft | 373 kts | 9° |
| 2026-04-22 07:54 | 39.37461 | -74.70962 | 35250 ft | 375 kts | 10° |
| 2026-04-22 07:55 | 39.42468 | -74.69003 | 35250 ft | 374 kts | 10° |
| 2026-04-22 07:55 | 39.47435 | -74.67029 | 35250 ft | 373 kts | 10° |
| 2026-04-22 07:56 | 39.52388 | -74.65045 | 35250 ft | 374 kts | 11° |
| 2026-04-22 07:56 | 39.57329 | -74.63055 | 35249 ft | 374 kts | 11° |
| 2026-04-22 07:57 | 39.62292 | -74.61044 | 35248 ft | 372 kts | 11° |
| 2026-04-22 07:57 | 39.67228 | -74.59038 | 35249 ft | 373 kts | 11° |
| 2026-04-22 07:58 | 39.72188 | -74.57018 | 35249 ft | 374 kts | 11° |
| 2026-04-22 07:58 | 39.77126 | -74.55001 | 35246 ft | 372 kts | 11° |
| 2026-04-22 07:59 | 39.82067 | -74.52980 | 35250 ft | 372 kts | 10° |
| 2026-04-22 07:59 | 39.87036 | -74.50945 | 35251 ft | 372 kts | 10° |
| 2026-04-22 08:00 | 39.91979 | -74.48915 | 35245 ft | 371 kts | 10° |
| 2026-04-22 08:00 | 39.96868 | -74.46908 | 35250 ft | 372 kts | 10° |
| 2026-04-22 08:01 | 40.01801 | -74.44881 | 35246 ft | 373 kts | 10° |
| 2026-04-22 08:01 | 40.06722 | -74.42850 | 35247 ft | 371 kts | 10° |
| 2026-04-22 08:02 | 40.11662 | -74.40810 | 35255 ft | 372 kts | 10° |
| 2026-04-22 08:02 | 40.16595 | -74.38772 | 35253 ft | 372 kts | 10° |
| 2026-04-22 08:03 | 40.21532 | -74.36730 | 35259 ft | 372 kts | 10° |
| 2026-04-22 08:03 | 40.26427 | -74.34701 | 35253 ft | 371 kts | 10° |
| 2026-04-22 08:04 | 40.31386 | -74.32643 | 35250 ft | 372 kts | 10° |
| 2026-04-22 08:04 | 40.36290 | -74.30602 | 35251 ft | 371 kts | 10° |
| 2026-04-22 08:05 | 40.41212 | -74.28550 | 35250 ft | 371 kts | 10° |
| 2026-04-22 08:05 | 40.46133 | -74.26497 | 35245 ft | 372 kts | 10° |
| 2026-04-22 08:06 | 40.51053 | -74.24441 | 35242 ft | 371 kts | 10° |
| 2026-04-22 08:06 | 40.55977 | -74.22450 | 35245 ft | 370 kts | 9° |
| 2026-04-22 08:07 | 40.60902 | -74.20477 | 35242 ft | 371 kts | 10° |
| 2026-04-22 08:07 | 40.65812 | -74.18346 | 35239 ft | 373 kts | 12° |
| 2026-04-22 08:08 | 40.70614 | -74.15888 | 35244 ft | 378 kts | 20° |
| 2026-04-22 08:08 | 40.72866 | -74.14026 | 35268 ft | 389 kts | 35° |
| 2026-04-22 08:08 | 40.74699 | -74.11336 | 35283 ft | 405 kts | 53° |
| 2026-04-22 08:09 | 40.75577 | -74.09060 | 35313 ft | 417 kts | 66° |
| 2026-04-22 08:09 | 40.76206 | -74.03992 | 35316 ft | 436 kts | 91° |
| 2026-04-22 08:09 | 40.75667 | -74.00051 | 35308 ft | 443 kts | 110° |
| 2026-04-22 08:09 | 40.74816 | -73.97531 | 35312 ft | 443 kts | 122° |
| 2026-04-22 08:10 | 40.73003 | -73.94340 | 35293 ft | 442 kts | 134° |
| 2026-04-22 08:10 | 40.70861 | -73.91415 | 35261 ft | 442 kts | 137° |
| 2026-04-22 08:10 | 40.66797 | -73.85401 | 35230 ft | 439 kts | 127° |
| 2026-04-22 08:11 | 40.63219 | -73.78853 | 35228 ft | 441 kts | 125° |
| 2026-04-22 08:11 | 40.59759 | -73.72168 | 35231 ft | 441 kts | 124° |
| 2026-04-22 08:12 | 40.56381 | -73.65526 | 35236 ft | 440 kts | 124° |
| 2026-04-22 08:12 | 40.54799 | -73.62102 | 35251 ft | 438 kts | 111° |
| 2026-04-22 08:12 | 40.53931 | -73.58295 | 35284 ft | 434 kts | 91° |
| 2026-04-22 08:13 | 40.53952 | -73.54381 | 35292 ft | 428 kts | 72° |
| 2026-04-22 08:13 | 40.54842 | -73.50717 | 35299 ft | 417 kts | 53° |
| 2026-04-22 08:13 | 40.56495 | -73.47675 | 35295 ft | 401 kts | 34° |
| 2026-04-22 08:13 | 40.58689 | -73.45597 | 35296 ft | 382 kts | 15° |
| 2026-04-22 08:14 | 40.61170 | -73.44673 | 35298 ft | 363 kts | 354° |
| 2026-04-22 08:14 | 40.63591 | -73.44981 | 35299 ft | 350 kts | 336° |
| 2026-04-22 08:14 | 40.65924 | -73.45910 | 35269 ft | 356 kts | 348° |
| 2026-04-22 08:14 | 40.68457 | -73.45805 | 35282 ft | 370 kts | 8° |
| 2026-04-22 08:15 | 40.73327 | -73.43321 | 35226 ft | 380 kts | 14° |
| 2026-04-22 08:15 | 40.75812 | -73.42488 | 35254 ft | 359 kts | 353° |
| 2026-04-22 08:15 | 40.78209 | -73.42894 | 35280 ft | 345 kts | 332° |
| 2026-04-22 08:16 | 40.80246 | -73.44476 | 35289 ft | 340 kts | 311° |
| 2026-04-22 08:16 | 40.81610 | -73.46991 | 35292 ft | 341 kts | 291° |
| 2026-04-22 08:16 | 40.82095 | -73.50058 | 35290 ft | 347 kts | 272° |
| 2026-04-22 08:16 | 40.81886 | -73.53245 | 35246 ft | 351 kts | 265° |
| 2026-04-22 08:17 | 40.80737 | -73.59463 | 35226 ft | 353 kts | 249° |
| 2026-04-22 08:17 | 40.79355 | -73.62202 | 35251 ft | 368 kts | 234° |
| 2026-04-22 08:17 | 40.77515 | -73.64602 | 35231 ft | 379 kts | 228° |
| 2026-04-22 08:18 | 40.73228 | -73.68766 | 35213 ft | 385 kts | 219° |
| 2026-04-22 08:18 | 40.68614 | -73.72388 | 35207 ft | 386 kts | 217° |
| 2026-04-22 08:19 | 40.63957 | -73.75902 | 35212 ft | 387 kts | 220° |
| 2026-04-22 08:19 | 40.61872 | -73.78015 | 35232 ft | 371 kts | 237° |
| 2026-04-22 08:19 | 40.60494 | -73.80792 | 35271 ft | 354 kts | 258° |
| 2026-04-22 08:20 | 40.60044 | -73.83924 | 35287 ft | 344 kts | 278° |
| 2026-04-22 08:20 | 40.60565 | -73.86954 | 35288 ft | 340 kts | 299° |
| 2026-04-22 08:20 | 40.61948 | -73.89411 | 35292 ft | 341 kts | 320° |
| 2026-04-22 08:20 | 40.64007 | -73.90964 | 35292 ft | 348 kts | 341° |
| 2026-04-22 08:21 | 40.66447 | -73.91339 | 35302 ft | 361 kts | 1° |
| 2026-04-22 08:21 | 40.68915 | -73.90450 | 35297 ft | 379 kts | 21° |
| 2026-04-22 08:21 | 40.71101 | -73.88378 | 35266 ft | 399 kts | 41° |
| 2026-04-22 08:21 | 40.72729 | -73.85334 | 35258 ft | 416 kts | 60° |
| 2026-04-22 08:22 | 40.73585 | -73.81706 | 35252 ft | 429 kts | 79° |
| 2026-04-22 08:22 | 40.73589 | -73.77730 | 35246 ft | 437 kts | 98° |
| 2026-04-22 08:22 | 40.72699 | -73.73853 | 35262 ft | 441 kts | 117° |
| 2026-04-22 08:22 | 40.71034 | -73.70524 | 35258 ft | 441 kts | 136° |
| 2026-04-22 08:23 | 40.68714 | -73.67943 | 35256 ft | 436 kts | 155° |
| 2026-04-22 08:23 | 40.65971 | -73.66371 | 35252 ft | 427 kts | 173° |
| 2026-04-22 08:23 | 40.63074 | -73.65944 | 35252 ft | 414 kts | 192° |
| 2026-04-22 08:23 | 40.60333 | -73.66667 | 35255 ft | 397 kts | 211° |
| 2026-04-22 08:24 | 40.57997 | -73.68453 | 35256 ft | 378 kts | 231° |
| 2026-04-22 08:24 | 40.56369 | -73.71032 | 35260 ft | 362 kts | 251° |
| 2026-04-22 08:24 | 40.55603 | -73.74086 | 35267 ft | 349 kts | 271° |
| 2026-04-22 08:24 | 40.55794 | -73.77203 | 35269 ft | 341 kts | 292° |
| 2026-04-22 08:25 | 40.56917 | -73.79923 | 35270 ft | 339 kts | 313° |
| 2026-04-22 08:25 | 40.58765 | -73.81790 | 35271 ft | 344 kts | 334° |
| 2026-04-22 08:25 | 40.61139 | -73.82569 | 35269 ft | 357 kts | 355° |
| 2026-04-22 08:25 | 40.63630 | -73.82080 | 35266 ft | 374 kts | 15° |
| 2026-04-22 08:26 | 40.65946 | -73.80362 | 35260 ft | 393 kts | 35° |
| 2026-04-22 08:26 | 40.67759 | -73.77633 | 35255 ft | 410 kts | 54° |
| 2026-04-22 08:26 | 40.68885 | -73.74126 | 35250 ft | 425 kts | 73° |
| 2026-04-22 08:26 | 40.69168 | -73.70228 | 35245 ft | 434 kts | 92° |
| 2026-04-22 08:27 | 40.68565 | -73.66314 | 35242 ft | 440 kts | 111° |
| 2026-04-22 08:27 | 40.67133 | -73.62779 | 35246 ft | 441 kts | 130° |
| 2026-04-22 08:27 | 40.64992 | -73.59917 | 35249 ft | 438 kts | 149° |
| 2026-04-22 08:27 | 40.62347 | -73.58006 | 35243 ft | 430 kts | 168° |
| 2026-04-22 08:28 | 40.59460 | -73.57215 | 35247 ft | 418 kts | 186° |
| 2026-04-22 08:28 | 40.56670 | -73.57581 | 35249 ft | 402 kts | 205° |
| 2026-04-22 08:28 | 40.54155 | -73.59064 | 35248 ft | 384 kts | 225° |
| 2026-04-22 08:28 | 40.52304 | -73.61397 | 35255 ft | 367 kts | 245° |
| 2026-04-22 08:29 | 40.51237 | -73.64391 | 35257 ft | 352 kts | 265° |
| 2026-04-22 08:29 | 40.51128 | -73.67487 | 35262 ft | 343 kts | 285° |
| 2026-04-22 08:29 | 40.51966 | -73.70389 | 35262 ft | 339 kts | 307° |
| 2026-04-22 08:29 | 40.53612 | -73.72565 | 35265 ft | 342 kts | 327° |
| 2026-04-22 08:30 | 40.55846 | -73.73759 | 35251 ft | 351 kts | 342° |
| 2026-04-22 08:30 | 40.58239 | -73.74380 | 35208 ft | 354 kts | 345° |
| 2026-04-22 08:30 | 40.63101 | -73.75298 | 35188 ft | 350 kts | 347° |
| 2026-04-22 08:31 | 40.68006 | -73.75100 | 35231 ft | 370 kts | 15° |
| 2026-04-22 08:31 | 40.72104 | -73.70591 | 35265 ft | 413 kts | 55° |
| 2026-04-22 08:32 | 40.73217 | -73.67046 | 35262 ft | 427 kts | 74° |
| 2026-04-22 08:32 | 40.73485 | -73.63121 | 35259 ft | 436 kts | 93° |
| 2026-04-22 08:32 | 40.72882 | -73.59248 | 35258 ft | 439 kts | 111° |
| 2026-04-22 08:32 | 40.71453 | -73.55717 | 35254 ft | 440 kts | 130° |
| 2026-04-22 08:33 | 40.69303 | -73.52843 | 35249 ft | 438 kts | 149° |
| 2026-04-22 08:33 | 40.66679 | -73.50943 | 35252 ft | 431 kts | 167° |
| 2026-04-22 08:33 | 40.63774 | -73.50140 | 35252 ft | 419 kts | 186° |
| 2026-04-22 08:33 | 40.60990 | -73.50498 | 35251 ft | 403 kts | 205° |
| 2026-04-22 08:34 | 40.58488 | -73.51952 | 35256 ft | 384 kts | 225° |
| 2026-04-22 08:34 | 40.56588 | -73.54330 | 35263 ft | 366 kts | 245° |
| 2026-04-22 08:34 | 40.55537 | -73.57240 | 35264 ft | 352 kts | 265° |
| 2026-04-22 08:34 | 40.55410 | -73.60392 | 35270 ft | 343 kts | 285° |
| 2026-04-22 08:35 | 40.56221 | -73.63286 | 35269 ft | 340 kts | 302° |
| 2026-04-22 08:35 | 40.58927 | -73.68386 | 35198 ft | 337 kts | 306° |
| 2026-04-22 08:36 | 40.61736 | -73.73243 | 35193 ft | 334 kts | 307° |
| 2026-04-22 08:36 | 40.64701 | -73.77975 | 35211 ft | 336 kts | 321° |
| 2026-04-22 08:36 | 40.66766 | -73.79449 | 35262 ft | 345 kts | 342° |
| 2026-04-22 08:37 | 40.69189 | -73.79721 | 35280 ft | 363 kts | 3° |
| 2026-04-22 08:37 | 40.71643 | -73.78741 | 35279 ft | 384 kts | 23° |
| 2026-04-22 08:37 | 40.73838 | -73.76551 | 35258 ft | 402 kts | 43° |
| 2026-04-22 08:37 | 40.75403 | -73.73484 | 35259 ft | 416 kts | 62° |
| 2026-04-22 08:38 | 40.76212 | -73.69763 | 35254 ft | 428 kts | 81° |
| 2026-04-22 08:38 | 40.76141 | -73.65820 | 35267 ft | 436 kts | 100° |
| 2026-04-22 08:38 | 40.75193 | -73.62016 | 35263 ft | 442 kts | 119° |
| 2026-04-22 08:38 | 40.73436 | -73.58679 | 35258 ft | 442 kts | 138° |
| 2026-04-22 08:39 | 40.71068 | -73.56177 | 35252 ft | 436 kts | 156° |
| 2026-04-22 08:39 | 40.68288 | -73.54696 | 35253 ft | 425 kts | 175° |
| 2026-04-22 08:39 | 40.65406 | -73.54377 | 35252 ft | 410 kts | 194° |
| 2026-04-22 08:39 | 40.62715 | -73.55201 | 35257 ft | 394 kts | 213° |
| 2026-04-22 08:40 | 40.60459 | -73.57054 | 35264 ft | 378 kts | 233° |
| 2026-04-22 08:40 | 40.58893 | -73.59707 | 35264 ft | 362 kts | 253° |
| 2026-04-22 08:40 | 40.58208 | -73.62790 | 35265 ft | 348 kts | 273° |
| 2026-04-22 08:40 | 40.58483 | -73.65887 | 35268 ft | 339 kts | 294° |
| 2026-04-22 08:41 | 40.59546 | -73.68639 | 35237 ft | 339 kts | 302° |
| 2026-04-22 08:41 | 40.62157 | -73.73800 | 35197 ft | 335 kts | 305° |
| 2026-04-22 08:42 | 40.65136 | -73.78421 | 35227 ft | 335 kts | 327° |
| 2026-04-22 08:42 | 40.67342 | -73.79554 | 35269 ft | 349 kts | 348° |
| 2026-04-22 08:42 | 40.69818 | -73.79446 | 35279 ft | 370 kts | 9° |
| 2026-04-22 08:42 | 40.72246 | -73.78076 | 35275 ft | 390 kts | 29° |
| 2026-04-22 08:43 | 40.74246 | -73.75626 | 35252 ft | 406 kts | 48° |
| 2026-04-22 08:43 | 40.75609 | -73.72322 | 35251 ft | 420 kts | 68° |
| 2026-04-22 08:43 | 40.76157 | -73.68506 | 35262 ft | 430 kts | 87° |
| 2026-04-22 08:43 | 40.75814 | -73.64541 | 35261 ft | 439 kts | 106° |
| 2026-04-22 08:44 | 40.74604 | -73.60838 | 35257 ft | 443 kts | 125° |
| 2026-04-22 08:44 | 40.72645 | -73.57738 | 35251 ft | 441 kts | 143° |
| 2026-04-22 08:44 | 40.70132 | -73.55530 | 35247 ft | 433 kts | 162° |
| 2026-04-22 08:44 | 40.67314 | -73.54400 | 35248 ft | 421 kts | 181° |
| 2026-04-22 08:45 | 40.64461 | -73.54427 | 35251 ft | 406 kts | 200° |
| 2026-04-22 08:45 | 40.61850 | -73.55589 | 35258 ft | 390 kts | 219° |
| 2026-04-22 08:45 | 40.59754 | -73.57756 | 35260 ft | 373 kts | 239° |
| 2026-04-22 08:45 | 40.58455 | -73.60596 | 35262 ft | 357 kts | 259° |
| 2026-04-22 08:46 | 40.58076 | -73.63687 | 35263 ft | 344 kts | 279° |
| 2026-04-22 08:46 | 40.58651 | -73.66703 | 35268 ft | 337 kts | 299° |
| 2026-04-22 08:46 | 40.59828 | -73.69347 | 35220 ft | 340 kts | 303° |
| 2026-04-22 08:47 | 40.62490 | -73.74444 | 35188 ft | 334 kts | 306° |
| 2026-04-22 08:47 | 40.65660 | -73.78779 | 35239 ft | 338 kts | 333° |
| 2026-04-22 08:47 | 40.68003 | -73.79580 | 35272 ft | 355 kts | 354° |
| 2026-04-22 08:48 | 40.70471 | -73.79115 | 35276 ft | 376 kts | 14° |
| 2026-04-22 08:48 | 40.72808 | -73.77421 | 35275 ft | 395 kts | 34° |
| 2026-04-22 08:48 | 40.74663 | -73.74683 | 35251 ft | 410 kts | 54° |
| 2026-04-22 08:48 | 40.75809 | -73.71183 | 35250 ft | 423 kts | 73° |
| 2026-04-22 08:49 | 40.76104 | -73.67309 | 35261 ft | 433 kts | 92° |
| 2026-04-22 08:49 | 40.75508 | -73.63377 | 35259 ft | 441 kts | 111° |
| 2026-04-22 08:49 | 40.74070 | -73.59809 | 35251 ft | 443 kts | 130° |
| 2026-04-22 08:49 | 40.71928 | -73.56937 | 35250 ft | 439 kts | 149° |
| 2026-04-22 08:50 | 40.69274 | -73.55008 | 35248 ft | 430 kts | 167° |
| 2026-04-22 08:50 | 40.66403 | -73.54214 | 35251 ft | 417 kts | 186° |
| 2026-04-22 08:50 | 40.63585 | -73.54592 | 35251 ft | 401 kts | 206° |
| 2026-04-22 08:50 | 40.61135 | -73.56047 | 35256 ft | 385 kts | 225° |
| 2026-04-22 08:51 | 40.59265 | -73.58413 | 35259 ft | 368 kts | 245° |
| 2026-04-22 08:51 | 40.58201 | -73.61421 | 35261 ft | 352 kts | 265° |
| 2026-04-22 08:51 | 40.58097 | -73.64503 | 35265 ft | 341 kts | 286° |
| 2026-04-22 08:51 | 40.58914 | -73.67402 | 35255 ft | 338 kts | 301° |
| 2026-04-22 08:52 | 40.60166 | -73.70039 | 35211 ft | 339 kts | 304° |
| 2026-04-22 08:52 | 40.62820 | -73.75044 | 35192 ft | 333 kts | 306° |
| 2026-04-22 08:52 | 40.64260 | -73.77448 | 35197 ft | 333 kts | 317° |
| 2026-04-22 08:53 | 40.66193 | -73.79100 | 35249 ft | 337 kts | 339° |
| 2026-04-22 08:53 | 40.68551 | -73.79566 | 35276 ft | 346 kts | 0° |
| 2026-04-22 08:53 | 40.70895 | -73.78764 | 35282 ft | 366 kts | 21° |
| 2026-04-22 08:53 | 40.73017 | -73.76752 | 35283 ft | 388 kts | 42° |
| 2026-04-22 08:54 | 40.74584 | -73.73755 | 35259 ft | 408 kts | 62° |
| 2026-04-22 08:54 | 40.75381 | -73.70130 | 35266 ft | 420 kts | 81° |
| 2026-04-22 08:54 | 40.75306 | -73.66247 | 35263 ft | 427 kts | 101° |
| 2026-04-22 08:54 | 40.74355 | -73.62535 | 35260 ft | 430 kts | 120° |
| 2026-04-22 08:55 | 40.72621 | -73.59344 | 35258 ft | 429 kts | 139° |
| 2026-04-22 08:55 | 40.70268 | -73.56972 | 35254 ft | 425 kts | 159° |
| 2026-04-22 08:55 | 40.67563 | -73.55653 | 35253 ft | 415 kts | 178° |
| 2026-04-22 08:55 | 40.64716 | -73.55479 | 35256 ft | 400 kts | 197° |
| 2026-04-22 08:56 | 40.62154 | -73.56430 | 35256 ft | 382 kts | 217° |
| 2026-04-22 08:56 | 40.60068 | -73.58360 | 35259 ft | 363 kts | 237° |
| 2026-04-22 08:56 | 40.58691 | -73.61074 | 35264 ft | 346 kts | 258° |
| 2026-04-22 08:57 | 40.58251 | -73.64121 | 35272 ft | 334 kts | 279° |
| 2026-04-22 08:57 | 40.58764 | -73.66985 | 35270 ft | 328 kts | 299° |
| 2026-04-22 08:57 | 40.59907 | -73.69540 | 35222 ft | 330 kts | 304° |